Terminal Aerodrome Forecast
Issued by NWS

Home | Current Version | Previous Version | Graphics & Text | Print | Product List | Glossary Off
Versions: 1 2 3 4 5 6 7 8 9 10 11 12 13 14 15 16 17 18 19

000
FTUS43 KTOP 291255 AAA
TAFMHK
TAF AMD
KMHK 291255Z 2913/3012 34003KT P6SM OVC030
      TEMPO 2913/2915 BKN015
     FM291600 36008KT P6SM BKN025
     FM291800 03006KT P6SM FEW025=

USA.gov is the U.S. government's official web portal to all federal, state and local government web resources and services.